Accueil
METAR-TAF:

METAR-TAF

Aéroports :

Niederstetten, Allemagne

Base aérienne

latitude: 49-24N, longitude: 009-58E, altitude: 468 m

Observation

Le bulletin a été fait il y a 24 minutes, à 15:20 UTC
Vent 2 kt de nord-ouest
Température 24°C
Humidité 38%
Pression 1019 hPa
Visibilité 10 km ou plus
Quelques nuages à une hauteur de 6000 ft

METAR: ETHN 211520Z 31002KT 9999 FEW060 24/09 Q1019 BLU+

Heure: 17:44 (15:44 UTC)

Prévision

Le bulletin a été fait il y a 29 heures et 48 minutes, à 09:56 UTC
Prévision valable du 20 à 08 UTC au 20 à 17 UTC
Vent 7 kt de est/sud-est
Visibilité: 1000 m
Nuages épars à une hauteur de 30000 ft

TAF: ETHN 200956Z 2008/2017 11007KT 9999 NSW SCT300 CANCEL 1000

Observations et prévisions météorologiques de plus de 4000 aéroports (messages METAR et TAF).

Les stations disponibles sont représentées par des disques jaunes et rouges sur la carte.

Passer la souris dessus pour voir le nom de la station.

Cliquer dessus pour voir les observations et prévisions météorologiques.

Pour changer de carte: cliquez sur les boutons verts avec une croix noire pour zoomer, sur le bouton vert avec un tiret pour effectuer un zoom arrière, ou sur les flèches vertes pour les cartes adjacentes.


METAR-TAF: